Time;durP1;ratioP1;P1;durP2;ratioP2;P2;SDS_P1;SDS_P2;PMS_P1;PMS_P2;Temp;Humidity;BMP_temperature;BMP_pressure;BME280_temperature;BME280_humidity;BME280_pressure;Samples;Min_cycle;Max_cycle;Signal;HPM_P1;HPM_P2
2022/09/15 00:01:46;;;;;;;6.00;2.65;;;;;;;;;;5030660;28;20049;-60
2022/09/15 00:04:12;;;;;;;5.10;2.72;;;;;;;;;;5029270;28;20041;-60
2022/09/15 00:06:38;;;;;;;8.52;3.15;;;;;;;;;;5029508;28;20033;-60
2022/09/15 00:09:04;;;;;;;7.75;2.70;;;;;;;;;;5031474;28;20488;-60
2022/09/15 00:11:32;;;;;;;5.32;2.83;;;;;;;;;;5027430;28;20025;-60
2022/09/15 00:14:00;;;;;;;9.90;3.20;;;;;;;;;;5030800;28;20428;-61
2022/09/15 00:16:27;;;;;;;9.88;3.50;;;;;;;;;;5031486;28;20474;-61
2022/09/15 00:18:53;;;;;;;9.70;2.85;;;;;;;;;;5031066;28;20080;-60
2022/09/15 00:21:20;;;;;;;13.80;2.83;;;;;;;;;;5030029;28;20036;-61
2022/09/15 00:23:47;;;;;;;9.35;2.45;;;;;;;;;;5028945;28;20038;-60
2022/09/15 00:26:14;;;;;;;5.10;2.63;;;;;;;;;;5031430;28;20036;-59
2022/09/15 00:28:41;;;;;;;8.05;2.45;;;;;;;;;;5030568;28;20055;-60
2022/09/15 00:31:08;;;;;;;9.73;3.00;;;;;;;;;;5031010;28;20116;-60
2022/09/15 00:33:34;;;;;;;6.85;3.15;;;;;;;;;;5029737;28;20100;-60
2022/09/15 00:36:01;;;;;;;12.23;3.42;;;;;;;;;;5028035;28;20144;-60
2022/09/15 00:38:27;;;;;;;5.78;3.15;;;;;;;;;;5032584;28;20525;-60
2022/09/15 00:40:56;;;;;;;8.80;3.45;;;;;;;;;;5028714;28;20056;-61
2022/09/15 00:43:40;;;;;;;9.55;3.05;;;;;;;;;;5027605;28;20029;-60
2022/09/15 00:46:06;;;;;;;7.30;2.92;;;;;;;;;;5029788;28;20033;-60
2022/09/15 00:48:33;;;;;;;11.95;3.90;;;;;;;;;;5028935;28;20041;-61
2022/09/15 00:51:00;;;;;;;9.90;3.47;;;;;;;;;;5023902;28;20059;-60
2022/09/15 00:53:26;;;;;;;8.55;2.97;;;;;;;;;;5030811;28;20037;-60
2022/09/15 00:55:53;;;;;;;7.10;3.33;;;;;;;;;;5027008;28;20024;-60
2022/09/15 00:58:42;;;;;;;11.90;3.80;;;;;;;;;;5028462;28;20038;-60
2022/09/15 01:01:09;;;;;;;6.45;3.25;;;;;;;;;;5015933;28;20136;-65
2022/09/15 01:03:36;;;;;;;8.25;3.10;;;;;;;;;;5033845;28;20109;-64
2022/09/15 01:06:06;;;;;;;8.18;3.30;;;;;;;;;;5031991;28;20040;-64
2022/09/15 01:08:34;;;;;;;8.10;3.67;;;;;;;;;;5033952;28;20591;-64
2022/09/15 01:11:00;;;;;;;6.55;3.30;;;;;;;;;;5033176;28;20040;-64
2022/09/15 01:13:28;;;;;;;10.30;3.50;;;;;;;;;;5031151;28;20158;-64
2022/09/15 01:16:07;;;;;;;7.07;3.45;;;;;;;;;;5033757;28;20045;-63
2022/09/15 01:18:39;;;;;;;7.35;3.75;;;;;;;;;;5033291;28;20073;-64
2022/09/15 01:21:13;;;;;;;9.48;3.50;;;;;;;;;;5032363;28;20488;-63
2022/09/15 01:24:01;;;;;;;12.98;3.88;;;;;;;;;;5027365;28;20468;-65
2022/09/15 01:26:30;;;;;;;8.25;3.13;;;;;;;;;;5034142;28;20528;-64
2022/09/15 01:29:23;;;;;;;10.32;4.07;;;;;;;;;;5030509;28;20486;-65
2022/09/15 01:34:47;;;;;;;10.88;4.07;;;;;;;;;;5031662;28;20522;-65
2022/09/15 01:37:16;;;;;;;13.98;4.22;;;;;;;;;;5025736;28;20022;-65
2022/09/15 01:39:44;;;;;;;7.28;3.67;;;;;;;;;;5033251;28;20029;-64
2022/09/15 01:42:12;;;;;;;11.80;3.90;;;;;;;;;;5031057;28;20100;-64
2022/09/15 01:44:42;;;;;;;11.75;3.53;;;;;;;;;;5014703;28;20033;-65
2022/09/15 01:47:09;;;;;;;9.25;3.38;;;;;;;;;;5014043;28;20409;-64
2022/09/15 01:49:44;;;;;;;10.57;3.95;;;;;;;;;;5030564;28;20033;-65
2022/09/15 01:52:10;;;;;;;11.10;3.75;;;;;;;;;;5030380;28;20034;-64
2022/09/15 01:54:44;;;;;;;9.27;3.75;;;;;;;;;;5025815;28;20030;-64
2022/09/15 01:57:10;;;;;;;8.40;4.57;;;;;;;;;;5022122;28;20029;-64
2022/09/15 01:59:36;;;;;;;13.68;4.10;;;;;;;;;;5033430;28;20033;-62
2022/09/15 02:02:09;;;;;;;8.05;3.38;;;;;;;;;;5030863;28;20084;-64
2022/09/15 02:04:44;;;;;;;8.73;3.55;;;;;;;;;;5033570;28;20095;-64
2022/09/15 02:07:13;;;;;;;9.90;4.03;;;;;;;;;;5032811;28;20038;-64
2022/09/15 02:10:01;;;;;;;7.60;3.33;;;;;;;;;;5031804;28;20037;-63
2022/09/15 02:12:37;;;;;;;10.43;3.92;;;;;;;;;;5024487;28;20067;-65
2022/09/15 02:15:07;;;;;;;11.23;3.70;;;;;;;;;;5014240;28;20029;-61
2022/09/15 02:17:41;;;;;;;11.00;4.57;;;;;;;;;;5030894;28;20029;-64
2022/09/15 02:20:14;;;;;;;10.52;3.97;;;;;;;;;;5026923;28;20033;-64
2022/09/15 02:22:40;;;;;;;;;;;;;;;;;;5032010;28;20116;-64
2022/09/15 02:25:12;;;;;;;10.70;4.00;;;;;;;;;;5032845;28;20007;-64
2022/09/15 02:27:41;;;;;;;6.15;3.95;;;;;;;;;;5032977;28;20061;-64
2022/09/15 02:30:11;;;;;;;10.00;4.80;;;;;;;;;;5028720;28;20036;-64
2022/09/15 02:32:39;;;;;;;12.48;4.13;;;;;;;;;;5028263;28;20140;-64
2022/09/15 02:35:06;;;;;;;5.85;3.15;;;;;;;;;;5030040;28;20039;-63
2022/09/15 02:37:32;;;;;;;8.32;4.13;;;;;;;;;;5030631;28;20029;-65
2022/09/15 02:39:59;;;;;;;11.98;4.40;;;;;;;;;;5032286;28;20476;-64
2022/09/15 02:42:26;;;;;;;8.88;4.00;;;;;;;;;;5014654;28;20038;-65
2022/09/15 02:44:52;;;;;;;9.18;3.80;;;;;;;;;;5029635;28;20094;-64
2022/09/15 02:47:18;;;;;;;7.78;4.10;;;;;;;;;;5031191;28;20026;-65
2022/09/15 02:49:44;;;;;;;8.77;4.40;;;;;;;;;;5030325;28;20041;-64
2022/09/15 02:52:10;;;;;;;6.57;4.00;;;;;;;;;;5027192;28;20076;-65
2022/09/15 02:54:36;;;;;;;7.32;4.05;;;;;;;;;;5030098;28;20471;-66
2022/09/15 02:57:02;;;;;;;5.18;3.38;;;;;;;;;;5033031;28;20104;-64
2022/09/15 03:00:12;;;;;;;9.52;4.30;;;;;;;;;;5032534;28;20369;-64
2022/09/15 03:02:16;;;;;;;12.85;4.15;;;;;;;;;;5028897;28;20083;-65
2022/09/15 03:04:42;;;;;;;12.07;4.05;;;;;;;;;;5031335;28;20035;-64
2022/09/15 03:07:08;;;;;;;8.07;3.42;;;;;;;;;;5031082;28;20396;-63
2022/09/15 03:09:34;;;;;;;9.82;3.97;;;;;;;;;;5024057;28;20034;-63
2022/09/15 03:12:00;;;;;;;6.90;3.92;;;;;;;;;;5023792;28;20432;-63
2022/09/15 03:14:27;;;;;;;11.20;4.25;;;;;;;;;;5031944;28;20024;-65
2022/09/15 03:16:54;;;;;;;7.10;4.25;;;;;;;;;;5010890;28;20018;-64
2022/09/15 03:19:20;;;;;;;12.70;4.20;;;;;;;;;;5031599;28;20060;-64
2022/09/15 03:21:46;;;;;;;8.50;4.32;;;;;;;;;;5025745;28;20033;-64
2022/09/15 03:24:14;;;;;;;13.13;4.70;;;;;;;;;;5024155;28;20029;-64
2022/09/15 03:26:40;;;;;;;8.55;4.40;;;;;;;;;;5029244;28;20072;-64
2022/09/15 03:29:06;;;;;;;7.43;4.45;;;;;;;;;;5032620;28;20033;-65
2022/09/15 03:31:32;;;;;;;6.65;4.00;;;;;;;;;;5030045;28;20444;-65
2022/09/15 03:33:58;;;;;;;5.95;4.32;;;;;;;;;;5031259;28;20029;-64
2022/09/15 03:36:23;;;;;;;8.77;4.15;;;;;;;;;;5030564;28;20025;-64
2022/09/15 03:38:49;;;;;;;8.68;4.55;;;;;;;;;;5031503;28;20111;-65
2022/09/15 03:41:15;;;;;;;10.32;4.18;;;;;;;;;;5029643;28;20100;-65
2022/09/15 03:43:42;;;;;;;9.30;3.50;;;;;;;;;;5032103;28;20080;-64
2022/09/15 03:46:10;;;;;;;12.32;5.40;;;;;;;;;;5032303;28;20033;-65
2022/09/15 03:48:36;;;;;;;9.55;4.25;;;;;;;;;;5013538;28;20022;-65
2022/09/15 03:51:05;;;;;;;9.32;4.95;;;;;;;;;;5031624;28;20033;-64
2022/09/15 03:53:33;;;;;;;9.00;4.70;;;;;;;;;;5032075;28;20044;-64
2022/09/15 03:56:08;;;;;;;8.07;4.97;;;;;;;;;;5030264;28;20021;-65
2022/09/15 03:58:34;;;;;;;9.70;4.55;;;;;;;;;;5031982;28;20036;-65
2022/09/15 04:01:00;;;;;;;9.15;3.95;;;;;;;;;;5031621;28;20550;-64
2022/09/15 04:03:26;;;;;;;11.93;4.80;;;;;;;;;;5031086;28;20033;-65
2022/09/15 04:05:52;;;;;;;6.55;4.45;;;;;;;;;;5030069;28;20112;-64
2022/09/15 04:08:18;;;;;;;8.02;4.18;;;;;;;;;;5030449;28;20030;-65
2022/09/15 04:10:44;;;;;;;7.10;4.00;;;;;;;;;;5028793;28;20124;-64
2022/09/15 04:13:10;;;;;;;8.13;3.97;;;;;;;;;;5031861;28;20021;-64
2022/09/15 04:15:36;;;;;;;9.63;4.47;;;;;;;;;;5028267;28;20511;-65
2022/09/15 04:18:03;;;;;;;9.93;4.70;;;;;;;;;;5030618;28;20171;-65
2022/09/15 04:20:29;;;;;;;9.93;4.03;;;;;;;;;;5031142;28;20026;-65
2022/09/15 04:22:55;;;;;;;7.50;4.25;;;;;;;;;;5027773;28;20026;-64
2022/09/15 04:25:23;;;;;;;11.32;4.38;;;;;;;;;;5025526;28;20105;-64
2022/09/15 04:27:49;;;;;;;7.22;4.10;;;;;;;;;;5027513;28;20413;-64
2022/09/15 04:30:15;;;;;;;10.18;4.25;;;;;;;;;;5028845;28;20033;-64
2022/09/15 04:32:41;;;;;;;11.10;4.47;;;;;;;;;;5029842;28;20489;-65
2022/09/15 04:35:07;;;;;;;11.77;4.57;;;;;;;;;;5019626;28;20108;-65
2022/09/15 04:37:33;;;;;;;8.35;4.00;;;;;;;;;;5031095;28;20436;-65
2022/09/15 04:40:00;;;;;;;10.50;4.55;;;;;;;;;;5029864;28;20033;-65
2022/09/15 04:42:26;;;;;;;8.20;4.47;;;;;;;;;;5029827;28;20029;-64
2022/09/15 04:44:52;;;;;;;9.40;4.90;;;;;;;;;;5022731;28;20595;-65
2022/09/15 04:47:18;;;;;;;12.88;5.13;;;;;;;;;;5029258;28;20029;-65
2022/09/15 04:49:44;;;;;;;13.10;5.38;;;;;;;;;;5027990;28;20032;-64
2022/09/15 04:52:10;;;;;;;10.57;4.95;;;;;;;;;;5025217;28;20486;-65
2022/09/15 04:54:36;;;;;;;9.25;4.32;;;;;;;;;;5029953;28;20060;-64
2022/09/15 04:57:02;;;;;;;11.32;4.70;;;;;;;;;;5030833;28;20029;-64
2022/09/15 04:59:28;;;;;;;11.13;4.85;;;;;;;;;;5030195;28;20087;-63
2022/09/15 05:01:54;;;;;;;8.30;5.00;;;;;;;;;;5026268;28;20038;-65
2022/09/15 05:04:21;;;;;;;11.38;4.97;;;;;;;;;;5024290;28;20166;-65
2022/09/15 05:06:47;;;;;;;7.25;4.18;;;;;;;;;;5029611;28;20132;-65
2022/09/15 05:09:13;;;;;;;11.40;4.88;;;;;;;;;;5022887;28;20116;-64
2022/09/15 05:11:39;;;;;;;10.68;5.35;;;;;;;;;;5025246;28;20036;-64
2022/09/15 05:14:05;;;;;;;12.13;4.75;;;;;;;;;;5028347;28;20029;-63
2022/09/15 05:16:31;;;;;;;15.48;5.43;;;;;;;;;;5027125;28;20018;-65
2022/09/15 05:18:59;;;;;;;9.85;5.40;;;;;;;;;;5029030;28;20053;-64
2022/09/15 05:21:26;;;;;;;10.82;5.43;;;;;;;;;;5024126;28;20040;-65
2022/09/15 05:23:52;;;;;;;10.80;5.95;;;;;;;;;;5028722;28;20485;-64
2022/09/15 05:26:20;;;;;;;12.98;5.45;;;;;;;;;;5020290;28;20026;-65
2022/09/15 05:28:46;;;;;;;11.95;5.28;;;;;;;;;;5029717;28;20536;-64
2022/09/15 05:31:18;;;;;;;8.90;5.40;;;;;;;;;;5029147;28;20037;-63
2022/09/15 05:33:45;;;;;;;11.85;5.50;;;;;;;;;;5027599;28;20018;-65
2022/09/15 05:36:13;;;;;;;12.80;5.65;;;;;;;;;;5027968;28;20025;-65
2022/09/15 05:38:39;;;;;;;13.82;5.53;;;;;;;;;;5025278;28;20033;-65
2022/09/15 05:41:15;;;;;;;12.93;5.32;;;;;;;;;;5024601;28;20876;-64
2022/09/15 05:43:40;;;;;;;14.98;7.25;;;;;;;;;;5030707;28;20137;-64
2022/09/15 05:46:07;;;;;;;14.18;6.43;;;;;;;;;;5030367;28;20088;-64
2022/09/15 05:48:33;;;;;;;13.18;6.60;;;;;;;;;;5034153;28;20041;-65
2022/09/15 05:50:59;;;;;;;12.95;6.57;;;;;;;;;;5033617;28;20025;-66
2022/09/15 05:53:25;;;;;;;14.75;6.00;;;;;;;;;;5034298;28;20021;-64
2022/09/15 05:55:55;;;;;;;13.68;6.53;;;;;;;;;;5026733;28;20062;-65
2022/09/15 05:58:22;;;;;;;18.48;6.78;;;;;;;;;;5028637;28;20029;-66
2022/09/15 06:00:48;;;;;;;17.05;6.22;;;;;;;;;;5033494;28;20029;-65
2022/09/15 06:03:14;;;;;;;10.98;6.53;;;;;;;;;;5033442;28;20376;-63
2022/09/15 06:05:41;;;;;;;12.95;5.88;;;;;;;;;;5033524;28;20091;-65
2022/09/15 06:08:07;;;;;;;16.65;5.90;;;;;;;;;;5032660;28;20051;-65
2022/09/15 06:10:33;;;;;;;11.18;5.95;;;;;;;;;;5033541;28;20033;-65
2022/09/15 06:12:59;;;;;;;14.05;5.63;;;;;;;;;;5032403;28;20030;-64
2022/09/15 06:15:25;;;;;;;12.75;5.45;;;;;;;;;;5026837;28;20401;-65
2022/09/15 06:17:51;;;;;;;15.27;5.00;;;;;;;;;;5027774;28;20397;-65
2022/09/15 06:20:17;;;;;;;13.52;4.97;;;;;;;;;;5027062;28;20034;-64
2022/09/15 06:22:44;;;;;;;14.10;5.68;;;;;;;;;;5033687;28;20083;-64
2022/09/15 06:25:12;;;;;;;10.95;4.70;;;;;;;;;;5010572;28;20033;-65
2022/09/15 06:27:38;;;;;;;13.20;4.72;;;;;;;;;;5025137;28;20074;-65
2022/09/15 06:30:04;;;;;;;9.68;4.07;;;;;;;;;;5032246;28;20112;-65
2022/09/15 06:32:30;;;;;;;11.00;4.22;;;;;;;;;;5031122;28;20117;-64
2022/09/15 06:34:56;;;;;;;14.27;4.55;;;;;;;;;;5033038;28;20643;-65
2022/09/15 06:37:22;;;;;;;11.98;4.05;;;;;;;;;;5033365;28;20072;-65
2022/09/15 06:39:48;;;;;;;9.93;4.25;;;;;;;;;;5031177;28;20463;-64
2022/09/15 06:42:14;;;;;;;9.52;3.83;;;;;;;;;;5029110;28;20061;-65
2022/09/15 06:44:40;;;;;;;9.40;4.22;;;;;;;;;;5029843;28;20029;-65
2022/09/15 06:47:06;;;;;;;10.27;4.43;;;;;;;;;;5029752;28;20036;-64
2022/09/15 06:49:32;;;;;;;10.25;3.25;;;;;;;;;;5031369;28;20038;-65
2022/09/15 06:52:01;;;;;;;9.55;3.55;;;;;;;;;;5033242;28;20151;-65
2022/09/15 06:54:27;;;;;;;7.55;3.58;;;;;;;;;;5032634;28;20025;-64
2022/09/15 06:56:53;;;;;;;15.07;3.03;;;;;;;;;;5032643;28;20029;-65
2022/09/15 06:59:19;;;;;;;8.68;3.15;;;;;;;;;;5031848;28;20444;-65
2022/09/15 07:01:45;;;;;;;14.88;3.45;;;;;;;;;;5027363;28;20440;-65
2022/09/15 07:04:11;;;;;;;8.57;4.07;;;;;;;;;;5020833;28;20026;-63
2022/09/15 07:06:38;;;;;;;10.88;3.85;;;;;;;;;;5032846;28;20041;-65
2022/09/15 07:09:05;;;;;;;11.77;4.05;;;;;;;;;;5032697;28;20032;-65
2022/09/15 07:11:31;;;;;;;7.18;2.90;;;;;;;;;;5031544;28;20048;-63
2022/09/15 07:13:58;;;;;;;6.43;3.03;;;;;;;;;;5032641;28;20072;-65
2022/09/15 07:16:24;;;;;;;9.90;3.10;;;;;;;;;;5031681;28;20357;-63
2022/09/15 07:18:50;;;;;;;11.50;3.78;;;;;;;;;;5030195;28;20041;-64
2022/09/15 07:21:18;;;;;;;11.15;2.92;;;;;;;;;;5025044;28;20030;-64
2022/09/15 07:23:44;;;;;;;6.82;2.78;;;;;;;;;;5032136;28;20496;-65
2022/09/15 07:26:15;;;;;;;8.15;2.35;;;;;;;;;;5031717;28;20026;-65
2022/09/15 07:28:42;;;;;;;8.07;3.10;;;;;;;;;;5032426;28;20029;-65
2022/09/15 07:31:09;;;;;;;8.88;2.60;;;;;;;;;;5029603;28;20036;-65
2022/09/15 07:33:35;;;;;;;10.73;2.88;;;;;;;;;;5031456;28;20030;-64
2022/09/15 07:36:02;;;;;;;5.80;2.60;;;;;;;;;;5030105;28;20045;-65
2022/09/15 07:38:28;;;;;;;7.25;2.40;;;;;;;;;;5030939;28;20029;-65
2022/09/15 07:40:54;;;;;;;5.50;2.60;;;;;;;;;;5025950;28;20025;-65
2022/09/15 07:43:20;;;;;;;9.23;3.17;;;;;;;;;;5031714;28;20053;-64
2022/09/15 07:45:46;;;;;;;7.13;2.50;;;;;;;;;;5031505;28;20057;-65
2022/09/15 07:48:12;;;;;;;10.20;2.33;;;;;;;;;;5031470;28;20381;-64
2022/09/15 07:50:38;;;;;;;7.68;2.55;;;;;;;;;;5030717;28;20034;-64
2022/09/15 07:53:04;;;;;;;5.22;2.10;;;;;;;;;;5028801;28;20022;-64
2022/09/15 07:55:31;;;;;;;6.60;2.55;;;;;;;;;;5029396;28;20021;-64
2022/09/15 07:57:58;;;;;;;4.47;2.28;;;;;;;;;;5031917;28;20375;-64
2022/09/15 08:00:24;;;;;;;10.20;2.30;;;;;;;;;;5030305;28;20421;-63
2022/09/15 08:02:50;;;;;;;3.92;1.88;;;;;;;;;;5031329;28;20079;-64
2022/09/15 08:05:16;;;;;;;5.70;2.20;;;;;;;;;;5029634;28;20033;-64
2022/09/15 08:07:42;;;;;;;7.97;1.98;;;;;;;;;;5031107;28;20052;-65
2022/09/15 08:10:08;;;;;;;8.25;1.83;;;;;;;;;;5028441;28;20029;-64
2022/09/15 08:12:35;;;;;;;9.60;2.67;;;;;;;;;;5031406;28;20087;-64
2022/09/15 08:15:01;;;;;;;5.13;2.10;;;;;;;;;;5031197;28;20501;-64
2022/09/15 08:17:27;;;;;;;9.50;1.98;;;;;;;;;;5030824;28;20025;-64
2022/09/15 08:19:53;;;;;;;8.52;1.80;;;;;;;;;;5029464;28;20037;-66
2022/09/15 08:22:19;;;;;;;4.55;2.00;;;;;;;;;;5012071;28;20033;-64
2022/09/15 08:24:45;;;;;;;10.27;2.67;;;;;;;;;;5030781;28;20139;-65
2022/09/15 08:27:11;;;;;;;3.85;2.30;;;;;;;;;;5030107;28;20033;-65
2022/09/15 08:29:37;;;;;;;6.18;2.72;;;;;;;;;;5011940;28;20091;-64
2022/09/15 08:32:03;;;;;;;7.75;2.15;;;;;;;;;;5029621;28;20060;-64
2022/09/15 08:34:29;;;;;;;5.57;1.90;;;;;;;;;;5030786;28;20028;-64
2022/09/15 08:36:55;;;;;;;7.50;2.33;;;;;;;;;;5030732;28;20025;-64
2022/09/15 08:39:21;;;;;;;4.25;2.03;;;;;;;;;;5029977;28;20103;-65
2022/09/15 08:41:49;;;;;;;6.38;1.90;;;;;;;;;;5030601;28;20408;-65
2022/09/15 08:44:15;;;;;;;15.07;3.05;;;;;;;;;;5028822;28;20481;-65
2022/09/15 08:46:46;;;;;;;4.00;1.85;;;;;;;;;;5030155;28;20488;-65
2022/09/15 08:49:15;;;;;;;10.52;2.03;;;;;;;;;;5023386;28;20471;-65
2022/09/15 08:51:49;;;;;;;5.43;1.50;;;;;;;;;;5028675;28;20358;-64
2022/09/15 08:54:20;;;;;;;3.58;1.55;;;;;;;;;;5026967;28;20061;-64
2022/09/15 08:56:47;;;;;;;7.60;2.28;;;;;;;;;;5031108;28;20460;-65
2022/09/15 08:59:14;;;;;;;5.22;2.22;;;;;;;;;;5031081;28;20021;-65
2022/09/15 09:01:47;;;;;;;6.82;2.10;;;;;;;;;;5028887;28;20029;-65
2022/09/15 09:04:23;;;;;;;5.03;2.15;;;;;;;;;;5030761;28;20472;-65
2022/09/15 09:06:55;;;;;;;10.68;2.42;;;;;;;;;;5018494;28;20080;-65
2022/09/15 09:09:32;;;;;;;6.20;2.17;;;;;;;;;;5013082;28;20043;-64
2022/09/15 09:12:13;;;;;;;8.05;2.50;;;;;;;;;;5012920;28;20033;-65
2022/09/15 09:14:47;;;;;;;3.35;1.70;;;;;;;;;;5030514;28;20033;-64
2022/09/15 09:17:23;;;;;;;6.28;1.83;;;;;;;;;;5030783;28;20024;-65
2022/09/15 09:19:49;;;;;;;5.13;1.80;;;;;;;;;;5028511;28;20061;-65
2022/09/15 09:22:17;;;;;;;2.90;1.70;;;;;;;;;;5032745;28;20029;-65
2022/09/15 09:24:45;;;;;;;4.07;2.08;;;;;;;;;;5034666;28;20033;-65
2022/09/15 09:27:13;;;;;;;5.68;1.80;;;;;;;;;;5034561;28;20029;-65
2022/09/15 09:29:42;;;;;;;6.40;1.70;;;;;;;;;;5003497;28;20506;-65
2022/09/15 09:32:17;;;;;;;6.32;2.00;;;;;;;;;;5034426;28;20067;-65
2022/09/15 09:34:47;;;;;;;7.18;1.70;;;;;;;;;;5034520;28;20121;-65
2022/09/15 09:37:17;;;;;;;5.28;1.77;;;;;;;;;;5029794;28;20029;-64
2022/09/15 09:39:43;;;;;;;8.45;1.55;;;;;;;;;;5034139;28;20017;-64
2022/09/15 09:42:17;;;;;;;5.95;1.38;;;;;;;;;;5034657;28;20017;-64
2022/09/15 09:44:43;;;;;;;5.40;1.60;;;;;;;;;;5028600;28;20087;-65
2022/09/15 09:47:09;;;;;;;7.03;1.38;;;;;;;;;;5032352;28;20037;-65
2022/09/15 09:49:38;;;;;;;5.55;1.45;;;;;;;;;;5034136;28;20041;-65
2022/09/15 09:52:04;;;;;;;6.20;1.40;;;;;;;;;;5033880;28;20025;-65
2022/09/15 09:54:32;;;;;;;5.03;1.30;;;;;;;;;;5034176;28;20057;-64
2022/09/15 09:57:18;;;;;;;7.30;1.25;;;;;;;;;;5034267;28;21288;-65
2022/09/15 09:59:45;;;;;;;2.55;0.70;;;;;;;;;;5023281;28;20048;-64
2022/09/15 10:02:11;;;;;;;4.43;1.27;;;;;;;;;;5032730;28;20461;-64
2022/09/15 10:04:44;;;;;;;4.78;1.10;;;;;;;;;;5033777;28;20051;-65
2022/09/15 10:07:10;;;;;;;8.27;1.23;;;;;;;;;;5033952;28;20105;-64
2022/09/15 10:09:36;;;;;;;6.20;1.50;;;;;;;;;;5033939;28;20041;-62
2022/09/15 10:12:03;;;;;;;4.20;1.17;;;;;;;;;;5033551;28;20087;-64
2022/09/15 10:14:40;;;;;;;3.72;0.80;;;;;;;;;;5033881;28;20924;-65
2022/09/15 10:17:08;;;;;;;5.78;0.77;;;;;;;;;;5033268;28;20033;-64
2022/09/15 10:19:37;;;;;;;8.93;1.00;;;;;;;;;;5031938;28;20045;-64
2022/09/15 10:22:03;;;;;;;3.83;1.00;;;;;;;;;;5033494;28;20037;-64
2022/09/15 10:24:32;;;;;;;2.92;0.77;;;;;;;;;;5015817;28;20033;-65
2022/09/15 10:27:08;;;;;;;3.50;0.80;;;;;;;;;;5033760;28;20032;-65
2022/09/15 10:29:38;;;;;;;6.90;1.20;;;;;;;;;;5033261;28;20044;-64
2022/09/15 10:32:30;;;;;;;2.95;0.80;;;;;;;;;;5026652;28;20036;-65
2022/09/15 10:35:05;;;;;;;3.05;0.68;;;;;;;;;;5027683;28;20053;-64
2022/09/15 10:37:50;;;;;;;3.70;0.82;;;;;;;;;;5033437;28;20116;-64
2022/09/15 10:40:38;;;;;;;2.45;0.60;;;;;;;;;;5033205;28;20404;-65
2022/09/15 10:43:13;;;;;;;3.50;0.80;;;;;;;;;;5033390;28;20037;-65
2022/09/15 10:45:40;;;;;;;1.63;0.60;;;;;;;;;;5033481;28;20029;-65
2022/09/15 10:48:21;;;;;;;3.25;0.73;;;;;;;;;;5033367;28;20132;-65
2022/09/15 10:50:53;;;;;;;1.05;0.45;;;;;;;;;;5031106;28;20554;-65
2022/09/15 10:53:26;;;;;;;3.47;0.93;;;;;;;;;;5034502;28;20025;-65
2022/09/15 10:56:11;;;;;;;5.57;0.80;;;;;;;;;;5031927;28;20029;-64
2022/09/15 10:58:46;;;;;;;8.88;1.10;;;;;;;;;;5033170;28;20025;-63
2022/09/15 11:01:27;;;;;;;2.17;0.80;;;;;;;;;;5032492;28;20034;-65
2022/09/15 11:04:03;;;;;;;5.10;0.80;;;;;;;;;;5033031;28;20075;-63
2022/09/15 11:06:35;;;;;;;3.50;0.63;;;;;;;;;;5026082;28;20072;-63
2022/09/15 11:09:10;;;;;;;3.58;0.80;;;;;;;;;;5032931;28;20033;-65
2022/09/15 11:11:58;;;;;;;3.97;0.80;;;;;;;;;;5032563;28;20428;-65
2022/09/15 11:14:42;;;;;;;2.35;0.70;;;;;;;;;;5032725;28;20393;-65
2022/09/15 11:17:08;;;;;;;5.47;1.25;;;;;;;;;;5032713;28;20021;-64
2022/09/15 11:19:42;;;;;;;4.25;0.90;;;;;;;;;;5032522;28;20056;-65
2022/09/15 11:22:11;;;;;;;2.60;0.65;;;;;;;;;;5025523;28;20489;-64
2022/09/15 11:24:56;;;;;;;2.20;0.80;;;;;;;;;;5032601;28;20554;-64
2022/09/15 11:27:25;;;;;;;2.90;0.70;;;;;;;;;;5032470;28;20543;-64
2022/09/15 11:30:10;;;;;;;3.92;0.68;;;;;;;;;;5032128;28;20032;-65
2022/09/15 11:32:54;;;;;;;4.53;0.57;;;;;;;;;;5032417;28;20075;-65
2022/09/15 11:35:20;;;;;;;6.72;0.63;;;;;;;;;;5031607;28;20469;-64
2022/09/15 11:37:49;;;;;;;2.88;0.73;;;;;;;;;;5032328;28;20033;-64
2022/09/15 11:40:17;;;;;;;4.20;0.95;;;;;;;;;;5029735;28;20036;-64
2022/09/15 11:42:48;;;;;;;6.60;1.15;;;;;;;;;;5032477;28;20029;-64
2022/09/15 11:45:17;;;;;;;4.75;0.70;;;;;;;;;;5031299;28;20021;-64
2022/09/15 11:47:44;;;;;;;3.38;0.88;;;;;;;;;;5032024;28;20029;-65
2022/09/15 11:50:10;;;;;;;2.35;0.65;;;;;;;;;;5031408;28;20074;-63
2022/09/15 11:52:55;;;;;;;2.75;0.50;;;;;;;;;;5032172;28;20025;-64
2022/09/15 11:55:28;;;;;;;4.18;1.10;;;;;;;;;;5031948;28;20025;-65
2022/09/15 11:58:12;;;;;;;2.87;0.80;;;;;;;;;;5030645;28;20031;-65
2022/09/15 12:00:42;;;;;;;3.65;0.80;;;;;;;;;;5031510;28;20408;-64
2022/09/15 12:03:14;;;;;;;7.15;0.95;;;;;;;;;;5012074;28;20029;-65
2022/09/15 12:05:52;;;;;;;2.50;0.60;;;;;;;;;;5030415;28;20025;-64
2022/09/15 12:08:38;;;;;;;3.08;0.80;;;;;;;;;;5031775;28;20033;-65
2022/09/15 12:11:07;;;;;;;2.13;0.80;;;;;;;;;;5031143;28;20055;-64
2022/09/15 12:13:34;;;;;;;2.80;0.65;;;;;;;;;;5013904;28;20029;-64
2022/09/15 12:16:01;;;;;;;6.07;1.23;;;;;;;;;;5030735;28;20026;-64
2022/09/15 12:18:50;;;;;;;2.72;0.80;;;;;;;;;;5031447;28;20033;-64
2022/09/15 12:21:29;;;;;;;1.52;0.50;;;;;;;;;;5016622;28;20443;-64
2022/09/15 12:24:27;;;;;;;5.65;1.00;;;;;;;;;;5031581;28;20102;-64
2022/09/15 12:26:53;;;;;;;4.93;0.65;;;;;;;;;;4998211;28;20124;-63
2022/09/15 12:29:25;;;;;;;6.35;0.80;;;;;;;;;;5029758;28;20041;-64
2022/09/15 12:32:10;;;;;;;7.25;0.98;;;;;;;;;;5030927;28;20021;-64
2022/09/15 12:34:37;;;;;;;2.80;0.70;;;;;;;;;;5031011;28;20056;-64
2022/09/15 12:37:23;;;;;;;5.20;0.60;;;;;;;;;;5031571;28;20040;-64
2022/09/15 12:39:49;;;;;;;3.35;0.73;;;;;;;;;;5030897;28;20057;-64
2022/09/15 12:42:17;;;;;;;2.72;0.60;;;;;;;;;;5031216;28;20091;-64
2022/09/15 12:44:49;;;;;;;5.28;0.80;;;;;;;;;;5030664;28;20507;-63
2022/09/15 12:47:21;;;;;;;3.10;0.90;;;;;;;;;;5025839;28;20021;-64
2022/09/15 12:49:48;;;;;;;3.40;0.60;;;;;;;;;;5030599;28;20036;-64
2022/09/15 12:52:14;;;;;;;6.70;0.88;;;;;;;;;;5030174;28;20677;-65
2022/09/15 12:54:42;;;;;;;5.70;0.80;;;;;;;;;;5024981;28;20052;-64
2022/09/15 12:57:18;;;;;;;5.50;1.00;;;;;;;;;;5030846;28;20027;-64
2022/09/15 12:59:44;;;;;;;2.67;0.50;;;;;;;;;;5029405;28;20477;-65
2022/09/15 13:02:28;;;;;;;2.83;0.95;;;;;;;;;;5027607;28;20029;-65
2022/09/15 13:04:56;;;;;;;2.30;0.68;;;;;;;;;;5029279;28;20025;-64
2022/09/15 13:07:31;;;;;;;6.57;0.68;;;;;;;;;;5016460;28;20537;-66
2022/09/15 13:09:57;;;;;;;10.38;0.80;;;;;;;;;;5027090;28;20107;-64
2022/09/15 13:12:25;;;;;;;3.05;0.90;;;;;;;;;;5027442;28;20029;-63
2022/09/15 13:14:53;;;;;;;6.85;0.70;;;;;;;;;;5024445;28;20130;-65
2022/09/15 13:17:21;;;;;;;2.38;0.57;;;;;;;;;;5027630;28;20029;-65
2022/09/15 13:19:48;;;;;;;2.15;0.55;;;;;;;;;;5027522;28;20615;-65
2022/09/15 13:22:34;;;;;;;2.50;0.57;;;;;;;;;;5028524;28;20444;-64
2022/09/15 13:25:13;;;;;;;7.65;0.60;;;;;;;;;;5019150;28;20079;-65
2022/09/15 13:27:46;;;;;;;5.82;0.82;;;;;;;;;;5028403;28;20037;-66
2022/09/15 13:30:31;;;;;;;3.08;0.60;;;;;;;;;;5011189;28;20125;-60
2022/09/15 13:33:12;;;;;;;2.63;0.77;;;;;;;;;;5025404;28;20545;-59
2022/09/15 13:35:56;;;;;;;2.97;0.50;;;;;;;;;;5029271;28;20125;-60
2022/09/15 13:38:31;;;;;;;4.22;0.85;;;;;;;;;;5026017;28;20045;-60
2022/09/15 13:40:57;;;;;;;7.78;0.88;;;;;;;;;;5024802;28;20034;-61
2022/09/15 13:43:43;;;;;;;10.70;0.82;;;;;;;;;;5021051;28;20042;-66
2022/09/15 13:46:16;;;;;;;1.98;0.40;;;;;;;;;;5026184;28;20092;-66
2022/09/15 13:48:54;;;;;;;5.28;0.90;;;;;;;;;;5011391;28;20082;-65
2022/09/15 13:51:25;;;;;;;4.53;0.80;;;;;;;;;;5029237;28;20529;-63
2022/09/15 13:53:54;;;;;;;1.58;0.60;;;;;;;;;;5025622;28;20037;-63
2022/09/15 13:56:28;;;;;;;3.25;0.60;;;;;;;;;;5029380;28;20388;-63
2022/09/15 13:59:06;;;;;;;4.13;0.70;;;;;;;;;;5030263;28;20033;-61
2022/09/15 14:01:37;;;;;;;5.28;0.60;;;;;;;;;;5024365;28;20100;-65
2022/09/15 14:04:16;;;;;;;2.72;0.60;;;;;;;;;;5028479;28;20120;-66
2022/09/15 14:06:48;;;;;;;4.70;0.60;;;;;;;;;;5022174;28;20135;-63
2022/09/15 14:09:16;;;;;;;2.67;0.75;;;;;;;;;;5033240;28;20030;-66
2022/09/15 14:11:43;;;;;;;6.85;0.80;;;;;;;;;;5029582;28;20038;-65
2022/09/15 14:14:28;;;;;;;2.20;0.60;;;;;;;;;;5031919;28;20021;-65
2022/09/15 14:16:55;;;;;;;5.57;0.70;;;;;;;;;;5029510;28;20036;-65
2022/09/15 14:19:21;;;;;;;2.50;0.60;;;;;;;;;;5029013;28;20053;-65
2022/09/15 14:21:47;;;;;;;13.80;0.77;;;;;;;;;;5032131;28;20037;-64
2022/09/15 14:24:17;;;;;;;3.22;0.57;;;;;;;;;;5031671;28;20039;-66
2022/09/15 14:26:43;;;;;;;5.65;0.98;;;;;;;;;;5029797;28;20029;-64
2022/09/15 14:29:14;;;;;;;3.08;0.70;;;;;;;;;;5032127;28;20128;-64
2022/09/15 14:31:40;;;;;;;2.00;0.50;;;;;;;;;;5032859;28;20100;-65
2022/09/15 14:34:14;;;;;;;5.00;0.60;;;;;;;;;;5030890;28;20036;-65
2022/09/15 14:36:40;;;;;;;1.42;0.40;;;;;;;;;;5032040;28;20029;-63
2022/09/15 14:39:17;;;;;;;3.08;0.50;;;;;;;;;;5032571;28;20365;-64
2022/09/15 14:41:43;;;;;;;3.08;0.40;;;;;;;;;;5030992;28;20439;-65
2022/09/15 14:44:20;;;;;;;4.90;0.40;;;;;;;;;;5032284;28;20044;-65
2022/09/15 14:46:46;;;;;;;2.65;0.47;;;;;;;;;;5032366;28;20575;-64
2022/09/15 14:49:13;;;;;;;1.23;0.20;;;;;;;;;;5032939;28;20033;-65
2022/09/15 14:51:41;;;;;;;6.13;0.50;;;;;;;;;;5027748;28;20033;-66
2022/09/15 14:54:09;;;;;;;3.30;0.57;;;;;;;;;;5029585;28;20064;-66
2022/09/15 14:56:36;;;;;;;3.30;0.57;;;;;;;;;;5029669;28;20055;-65
2022/09/15 14:59:07;;;;;;;3.22;0.70;;;;;;;;;;5030498;28;20400;-66